Time;durP1;ratioP1;P1;durP2;ratioP2;P2;SDS_P1;SDS_P2;PMS_P1;PMS_P2;Temp;Humidity;BMP_temperature;BMP_pressure;BME280_temperature;BME280_humidity;BME280_pressure;Samples;Min_cycle;Max_cycle;Signal;HPM_P1;HPM_P2
2022/01/25 00:27:26;;;;;;;12.40;6.65;;;;;;;-4.20;58.85;101885.53;1686633;85;21019;-70
2022/01/25 00:32:12;;;;;;;12.95;6.87;;;;;;;-4.27;58.93;101869.56;1686679;85;21561;-70
2022/01/25 00:34:39;;;;;;;12.82;7.10;;;;;;;-4.26;58.98;101869.89;1686837;85;21055;-71
2022/01/25 00:37:05;;;;;;;11.10;5.83;;;;;;;-4.26;58.85;101869.08;1686032;85;20983;-71
2022/01/25 00:39:32;;;;;;;13.08;6.80;;;;;;;-4.26;58.81;101870.37;1687072;85;21494;-70
2022/01/25 00:41:58;;;;;;;10.15;6.03;;;;;;;-4.29;58.55;101864.11;1686854;84;21054;-70
2022/01/25 00:44:30;;;;;;;11.60;6.25;;;;;;;-4.32;58.36;101863.06;1686715;85;21096;-70
2022/01/25 00:46:53;;;;;;;11.53;5.17;;;;;;;-4.32;58.30;101862.58;1685974;85;21031;-70
2022/01/25 00:49:26;;;;;;;10.72;5.65;;;;;;;-4.32;58.15;101867.80;1686730;85;21105;-71
2022/01/25 00:52:04;;;;;;;10.48;5.65;;;;;;;-4.37;57.79;101858.72;1685931;85;20967;-70
2022/01/25 00:54:27;;;;;;;11.22;6.58;;;;;;;-4.39;57.80;101856.70;1682808;85;21007;-70
2022/01/25 00:56:49;;;;;;;11.18;6.47;;;;;;;-4.44;57.73;101850.58;1684838;85;21558;-70
2022/01/25 00:59:21;;;;;;;12.40;6.72;;;;;;;-4.44;57.90;101843.20;1686823;85;21051;-70
2022/01/25 01:01:55;;;;;;;11.22;6.50;;;;;;;-4.41;58.03;101849.47;1686839;85;21046;-70
2022/01/25 01:04:24;;;;;;;13.35;6.85;;;;;;;-4.38;58.16;101853.95;1686744;85;21055;-70
2022/01/25 01:06:51;;;;;;;11.10;6.25;;;;;;;-4.37;58.28;101854.80;1686792;85;21050;-71
2022/01/25 01:09:21;;;;;;;13.05;6.83;;;;;;;-4.35;58.43;101865.92;1687203;85;21511;-71
2022/01/25 01:11:57;;;;;;;13.43;7.17;;;;;;;-4.31;58.41;101866.00;1686676;85;21054;-70
2022/01/25 01:14:50;;;;;;;11.65;6.03;;;;;;;-4.33;58.46;101867.94;1686027;85;21032;-71
2022/01/25 01:17:15;;;;;;;12.45;6.65;;;;;;;-4.35;58.51;101869.83;1683039;85;21463;-71
2022/01/25 01:43:41;;;;;;;13.55;7.20;;;;;;;-4.51;58.79;101848.09;1687165;85;21059;-71
2022/01/25 01:48:51;;;;;;;12.37;6.15;;;;;;;-4.60;58.84;101853.61;1686833;85;22181;-71
2022/01/25 01:51:18;;;;;;;10.85;6.22;;;;;;;-4.58;58.95;101845.17;1684056;85;21015;-71
2022/01/25 01:53:42;;;;;;;10.20;5.75;;;;;;;-4.58;58.96;101848.26;1685158;85;20975;-71
2022/01/25 01:56:09;;;;;;;12.33;6.53;;;;;;;-4.59;59.00;101848.73;1685900;85;21088;-72
2022/01/25 01:58:36;;;;;;;11.35;6.00;;;;;;;-4.57;59.08;101842.11;1686709;85;21015;-71
2022/01/25 02:01:06;;;;;;;13.90;6.50;;;;;;;-4.57;59.11;101845.55;1686549;85;21543;-71
2022/01/25 02:03:33;;;;;;;9.83;5.90;;;;;;;-4.53;59.17;101843.51;1686497;85;21079;-70
2022/01/25 02:05:59;;;;;;;11.85;6.40;;;;;;;-4.57;59.13;101840.33;1686516;85;21418;-70
2022/01/25 02:08:26;;;;;;;11.43;6.33;;;;;;;-4.58;59.16;101838.66;1686789;85;21117;-70
2022/01/25 02:10:53;;;;;;;12.65;7.33;;;;;;;-4.59;59.24;101838.31;1686534;85;21498;-70
2022/01/25 02:13:20;;;;;;;11.68;6.40;;;;;;;-4.62;59.12;101839.05;1686893;85;21517;-71
2022/01/25 02:15:48;;;;;;;14.00;7.40;;;;;;;-4.67;59.20;101826.40;1686649;85;21422;-71
2022/01/25 02:23:48;;;;;;;11.08;6.00;;;;;;;-4.67;59.36;101809.45;1686240;85;20999;-71
2022/01/25 02:26:14;;;;;;;10.55;5.85;;;;;;;-4.67;59.30;101810.76;1686774;85;21469;-71
2022/01/25 02:28:44;;;;;;;11.03;5.72;;;;;;;-4.67;59.32;101812.52;1686788;85;21018;-71
2022/01/25 02:31:12;;;;;;;11.65;6.17;;;;;;;-4.66;59.28;101820.70;1686411;85;21006;-72
2022/01/25 02:33:40;;;;;;;11.40;6.00;;;;;;;-4.73;59.22;101819.08;1686798;85;21038;-72
2022/01/25 02:36:14;;;;;;;13.58;6.97;;;;;;;-4.75;59.34;101820.97;1686425;85;21655;-71
2022/01/25 02:38:40;;;;;;;11.80;6.85;;;;;;;-4.75;59.34;101825.70;1685157;85;21525;-71
2022/01/25 02:41:07;;;;;;;11.22;6.05;;;;;;;-4.75;59.39;101819.67;1686569;84;21023;-71
2022/01/25 02:43:35;;;;;;;12.15;7.10;;;;;;;-4.73;59.43;101815.99;1686943;85;21505;-71
2022/01/25 02:49:02;;;;;;;13.60;6.85;;;;;;;-4.67;59.17;101826.84;1663089;86;21062;-71
2022/01/25 02:51:34;;;;;;;11.63;6.03;;;;;;;-4.67;59.13;101809.45;1663053;86;21101;-70
2022/01/25 02:54:01;;;;;;;11.35;6.03;;;;;;;-4.70;59.07;101807.09;1663173;84;21003;-70
2022/01/25 02:56:28;;;;;;;11.40;6.55;;;;;;;-4.73;59.03;101810.78;1630633;87;20983;-71
2022/01/25 02:58:55;;;;;;;12.73;6.80;;;;;;;-4.74;59.08;101799.16;1630839;86;21629;-71
2022/01/25 03:01:22;;;;;;;10.55;6.33;;;;;;;-4.73;59.10;101780.80;1602580;88;20963;-70
2022/01/25 03:03:50;;;;;;;10.72;5.17;;;;;;;-4.71;59.27;101786.70;1630769;86;21205;-70
2022/01/25 03:06:19;;;;;;;10.25;5.22;;;;;;;-4.68;59.39;101792.63;1619628;88;21015;-70
2022/01/25 03:08:46;;;;;;;12.68;6.70;;;;;;;-4.68;59.43;101797.35;1610173;89;21015;-71
2022/01/25 03:11:13;;;;;;;11.53;6.05;;;;;;;-4.68;59.52;101796.05;1610137;87;21111;-71
2022/01/25 03:13:57;;;;;;;10.10;4.87;;;;;;;-4.68;59.49;101782.19;1610228;87;21004;-71
2022/01/25 03:16:38;;;;;;;12.68;6.08;;;;;;;-4.65;59.52;101782.77;1610242;87;21596;-71
2022/01/25 03:19:28;;;;;;;12.88;6.85;;;;;;;-4.71;59.52;101784.09;1609686;89;21036;-71
2022/01/25 03:21:37;;;;;;;13.62;6.12;;;;;;;-4.73;59.61;101771.67;1629361;87;21089;-72
2022/01/25 03:24:04;;;;;;;12.73;6.35;;;;;;;-4.68;59.71;101773.89;1630147;87;21471;-71
2022/01/25 03:26:31;;;;;;;13.65;6.67;;;;;;;-4.63;59.76;101761.31;1630670;88;21055;-71
2022/01/25 03:28:58;;;;;;;10.93;6.05;;;;;;;-4.57;59.80;101762.59;1629963;88;21184;-71
2022/01/25 03:31:24;;;;;;;11.70;6.67;;;;;;;-4.58;59.81;101755.70;1630546;86;21018;-71
2022/01/25 03:33:51;;;;;;;11.88;6.42;;;;;;;-4.60;59.88;101757.15;1630972;86;20956;-70
2022/01/25 03:36:17;;;;;;;13.45;6.58;;;;;;;-4.57;59.95;101759.98;1630363;86;20987;-71
2022/01/25 03:38:44;;;;;;;14.05;7.10;;;;;;;-4.56;60.00;101755.93;1631135;86;21106;-70
2022/01/25 03:41:13;;;;;;;12.05;6.80;;;;;;;-4.53;60.02;101753.06;1629876;88;21546;-70
2022/01/25 03:43:39;;;;;;;12.28;7.15;;;;;;;-4.49;60.00;101747.94;1631166;87;20960;-70
2022/01/25 03:46:59;;;;;;;11.55;6.28;;;;;;;-4.46;60.02;101742.13;1630963;88;21055;-72
2022/01/25 03:51:02;;;;;;;12.05;6.67;;;;;;;-4.43;59.99;101735.34;1630854;86;20952;-70
2022/01/25 03:53:29;;;;;;;13.68;6.95;;;;;;;-4.37;60.01;101738.27;1631081;86;21116;-70
2022/01/25 03:55:56;;;;;;;12.00;6.67;;;;;;;-4.33;59.98;101738.34;1630894;88;21117;-70
2022/01/25 03:58:23;;;;;;;13.13;6.75;;;;;;;-4.32;59.97;101729.55;1631066;87;20936;-69
2022/01/25 04:00:50;;;;;;;12.37;6.72;;;;;;;-4.32;59.98;101726.13;1630937;86;21559;-70
2022/01/25 04:03:25;;;;;;;14.00;6.65;;;;;;;-4.32;59.95;101715.20;1631080;86;20960;-71
2022/01/25 04:08:13;;;;;;;13.93;7.67;;;;;;;-4.34;59.91;101701.48;1631033;86;20952;-70
2022/01/25 04:10:40;;;;;;;15.75;7.80;;;;;;;-4.33;59.92;101703.61;1630865;88;20972;-70
2022/01/25 04:13:08;;;;;;;12.37;6.75;;;;;;;-4.29;59.99;101703.69;1628295;86;21178;-70
2022/01/25 04:15:40;;;;;;;13.35;7.70;;;;;;;-4.26;59.99;101704.25;1630854;88;21007;-70
2022/01/25 04:18:30;;;;;;;14.10;7.47;;;;;;;-4.24;59.95;101702.83;1630857;87;21182;-70
2022/01/25 04:21:07;;;;;;;13.50;7.35;;;;;;;-4.25;59.93;101701.98;1629878;88;21083;-70
2022/01/25 04:26:12;;;;;;;13.62;7.85;;;;;;;-4.25;60.00;101697.25;1630912;86;21566;-70
2022/01/25 04:28:39;;;;;;;13.55;7.22;;;;;;;-4.23;60.07;101695.34;1631093;86;21131;-70
2022/01/25 04:31:05;;;;;;;14.00;7.50;;;;;;;-4.21;60.09;101703.02;1630985;88;21160;-70
2022/01/25 04:33:42;;;;;;;13.48;7.33;;;;;;;-4.18;60.05;101706.19;1631482;87;21066;-70
2022/01/25 04:36:28;;;;;;;12.82;6.95;;;;;;;-4.16;59.96;101707.38;1644234;87;21495;-70
2022/01/25 04:49:45;;;;;;;13.78;7.22;;;;;;;-4.16;59.39;101699.55;1631197;87;21071;-71
2022/01/25 04:52:16;;;;;;;12.18;6.67;;;;;;;-4.18;59.33;101698.36;1629405;88;21105;-71
2022/01/25 04:54:58;;;;;;;12.63;6.87;;;;;;;-4.18;59.28;101704.06;1628192;88;21518;-71
2022/01/25 04:57:32;;;;;;;12.58;7.25;;;;;;;-4.21;59.28;101706.48;1629075;88;21111;-71
2022/01/25 05:00:06;;;;;;;;;;;;;;;-4.20;59.16;101717.25;1629099;86;21050;-71
2022/01/25 05:05:17;;;;;;;10.90;6.35;;;;;;;-4.28;58.97;101710.55;1630101;86;21047;-70
2022/01/25 05:07:51;;;;;;;13.62;7.42;;;;;;;-4.33;58.81;101710.14;1629716;87;21109;-70
2022/01/25 05:10:10;;;;;;;10.53;5.78;;;;;;;-4.35;58.67;101708.95;1629487;88;21561;-71
2022/01/25 05:12:46;;;;;;;13.60;6.62;;;;;;;-4.38;58.65;101703.98;1630925;87;20987;-71
2022/01/25 05:15:59;;;;;;;12.23;6.65;;;;;;;-4.39;58.60;101698.92;1627946;87;21114;-71
2022/01/25 05:17:42;;;;;;;12.82;6.87;;;;;;;-4.40;58.57;101698.09;1621618;87;21022;-71
2022/01/25 05:22:51;;;;;;;12.55;6.22;;;;;;;-4.52;58.57;101693.44;1630332;86;21527;-72
2022/01/25 05:25:18;;;;;;;11.68;6.75;;;;;;;-4.56;58.72;101689.45;1630786;87;21058;-72
2022/01/25 05:27:45;;;;;;;11.22;6.62;;;;;;;-4.62;58.87;101678.23;1630882;88;21521;-72
2022/01/25 05:30:12;;;;;;;12.53;6.58;;;;;;;-4.62;58.94;101681.32;1630833;88;21486;-72
2022/01/25 05:32:39;;;;;;;11.73;6.30;;;;;;;-4.63;59.01;101682.28;1641222;86;21086;-71
2022/01/25 05:35:07;;;;;;;11.53;6.40;;;;;;;-4.62;59.07;101682.14;1660586;86;21572;-72
2022/01/25 05:37:41;;;;;;;9.93;6.15;;;;;;;-4.63;59.16;101681.80;1660489;86;21050;-71
2022/01/25 05:40:07;;;;;;;11.03;6.35;;;;;;;-4.61;59.29;101677.27;1634232;86;21016;-71
2022/01/25 05:47:50;;;;;;;12.07;6.90;;;;;;;-4.51;59.40;101682.08;1569523;90;21626;-71
2022/01/25 05:50:16;;;;;;;12.40;6.65;;;;;;;-4.48;59.39;101675.74;1557448;90;21118;-71
2022/01/25 05:52:43;;;;;;;13.65;6.90;;;;;;;-4.41;59.31;101678.17;1585844;88;21015;-71
2022/01/25 05:55:11;;;;;;;13.90;7.15;;;;;;;-4.39;59.24;101674.97;1609693;87;21087;-71
2022/01/25 05:57:37;;;;;;;13.45;6.87;;;;;;;-4.36;59.23;101678.61;1609786;87;21078;-71
2022/01/25 06:00:06;;;;;;;11.83;6.75;;;;;;;-4.33;59.16;101674.44;1630443;86;22151;-71
2022/01/25 06:02:34;;;;;;;11.18;6.37;;;;;;;-4.32;58.98;101676.08;1630810;87;20952;-71
2022/01/25 06:05:03;;;;;;;14.70;7.25;;;;;;;-4.30;58.95;101674.66;1628411;87;21111;-71
2022/01/25 06:07:30;;;;;;;13.80;6.85;;;;;;;-4.25;58.97;101675.08;1630825;88;21027;-71
2022/01/25 06:09:57;;;;;;;11.90;6.53;;;;;;;-4.22;58.81;101666.16;1631209;86;21003;-71
2022/01/25 06:12:24;;;;;;;10.63;6.53;;;;;;;-4.22;58.73;101662.25;1630880;88;21543;-71
2022/01/25 06:14:50;;;;;;;12.37;6.75;;;;;;;-4.22;58.71;101670.08;1630832;86;21109;-71
2022/01/25 06:17:17;;;;;;;12.93;7.20;;;;;;;-4.26;58.54;101670.34;1630772;87;21117;-71
2022/01/25 06:19:44;;;;;;;11.38;6.60;;;;;;;-4.27;58.48;101673.92;1630963;86;21098;-71
2022/01/25 06:22:10;;;;;;;14.50;8.45;;;;;;;-4.27;58.42;101678.31;1630808;87;21134;-71
2022/01/25 06:24:37;;;;;;;12.25;6.85;;;;;;;-4.30;58.42;101672.05;1631025;87;21546;-70
2022/01/25 06:27:05;;;;;;;11.68;6.83;;;;;;;-4.30;58.42;101674.18;1630368;88;20936;-71
2022/01/25 06:29:31;;;;;;;11.40;6.58;;;;;;;-4.30;58.40;101672.88;1630782;87;21007;-71
2022/01/25 06:31:59;;;;;;;12.05;7.25;;;;;;;-4.27;58.31;101671.31;1630066;86;20980;-71
2022/01/25 06:34:26;;;;;;;12.90;6.85;;;;;;;-4.28;58.32;101668.81;1628973;86;21063;-70
2022/01/25 06:36:52;;;;;;;18.82;7.15;;;;;;;-4.22;58.46;101663.55;1629632;88;21603;-71
2022/01/25 06:39:19;;;;;;;11.12;6.62;;;;;;;-4.18;58.35;101661.02;1629391;88;20952;-71
2022/01/25 06:41:46;;;;;;;11.08;6.72;;;;;;;-4.15;58.07;101657.66;1629617;86;21025;-71
2022/01/25 06:44:13;;;;;;;10.53;6.12;;;;;;;-4.11;58.01;101656.46;1630818;87;20972;-71
2022/01/25 06:46:40;;;;;;;13.53;7.47;;;;;;;-4.07;57.68;101653.09;1630975;86;21560;-71
2022/01/25 06:49:06;;;;;;;12.73;6.92;;;;;;;-4.16;57.60;101649.98;1630974;86;21480;-70
2022/01/25 06:51:33;;;;;;;13.70;7.85;;;;;;;-4.21;57.58;101645.63;1631036;87;21038;-72
2022/01/25 06:54:00;;;;;;;13.65;7.20;;;;;;;-4.19;57.74;101651.07;1630836;87;21046;-71
2022/01/25 06:56:26;;;;;;;14.58;7.37;;;;;;;-4.09;57.77;101650.61;1630777;88;21514;-72
2022/01/25 06:58:53;;;;;;;13.65;7.25;;;;;;;-3.99;57.71;101650.63;1630764;86;21055;-71
2022/01/25 07:01:20;;;;;;;14.15;8.10;;;;;;;-3.95;57.58;101645.96;1630994;86;21661;-71
2022/01/25 07:03:46;;;;;;;12.90;7.83;;;;;;;-3.94;57.55;101637.20;1630643;87;21107;-72
2022/01/25 07:06:13;;;;;;;10.90;6.95;;;;;;;-3.92;57.41;101633.47;1631038;87;21436;-71
2022/01/25 07:08:43;;;;;;;12.80;7.75;;;;;;;-3.93;57.31;101631.00;1630784;86;20960;-71
2022/01/25 07:11:09;;;;;;;14.85;8.43;;;;;;;-3.99;57.08;101627.63;1630896;87;21099;-72
2022/01/25 07:13:35;;;;;;;15.10;7.97;;;;;;;-4.04;57.19;101632.78;1630823;86;21544;-72
2022/01/25 07:16:03;;;;;;;14.03;8.13;;;;;;;-4.06;57.06;101633.87;1630679;87;21046;-72
2022/01/25 07:18:30;;;;;;;12.03;7.17;;;;;;;-4.07;57.22;101629.13;1630804;87;20968;-72
2022/01/25 07:20:57;;;;;;;11.97;7.15;;;;;;;-4.07;57.07;101619.18;1630932;86;20995;-71
2022/01/25 07:23:24;;;;;;;12.85;7.60;;;;;;;-4.17;56.83;101626.98;1630955;86;21553;-71
2022/01/25 07:25:50;;;;;;;11.95;7.03;;;;;;;-4.34;56.98;101627.64;1630628;86;21082;-72
2022/01/25 07:28:17;;;;;;;12.65;7.87;;;;;;;-4.46;57.27;101623.48;1630939;87;21007;-72
2022/01/25 07:30:43;;;;;;;14.55;8.33;;;;;;;-4.52;57.54;101621.73;1650931;86;20995;-71
2022/01/25 07:33:10;;;;;;;15.43;8.65;;;;;;;-4.57;57.67;101614.80;1660364;86;20983;-71
2022/01/25 07:35:38;;;;;;;15.90;8.45;;;;;;;-4.52;57.87;101611.79;1660315;85;21076;-71
2022/01/25 07:38:05;;;;;;;14.13;7.87;;;;;;;-4.55;57.74;101610.75;1660485;86;21577;-72
2022/01/25 07:40:35;;;;;;;12.90;8.08;;;;;;;-4.64;57.64;101611.53;1660377;86;20956;-72
2022/01/25 07:43:03;;;;;;;14.28;8.18;;;;;;;-4.70;57.68;101599.87;1660664;85;21606;-72
2022/01/25 07:45:34;;;;;;;12.58;7.92;;;;;;;-4.68;57.77;101597.12;1660322;85;21078;-71
2022/01/25 07:47:58;;;;;;;14.40;8.65;;;;;;;-4.62;57.84;101600.50;1659972;85;21007;-73
2022/01/25 07:50:24;;;;;;;15.78;8.53;;;;;;;-4.57;57.81;101610.07;1648091;86;21164;-71
2022/01/25 07:52:51;;;;;;;16.70;9.30;;;;;;;-4.52;57.72;101600.05;1616795;86;21059;-71
2022/01/25 07:55:18;;;;;;;14.55;8.35;;;;;;;-4.44;57.67;101608.51;1630794;88;21004;-71
2022/01/25 07:57:44;;;;;;;14.15;8.58;;;;;;;-4.32;57.70;101603.05;1630764;87;21075;-71
2022/01/25 08:00:13;;;;;;;14.33;8.78;;;;;;;-4.10;57.62;101599.39;1630301;86;20968;-71
2022/01/25 08:02:44;;;;;;;14.30;8.70;;;;;;;-3.88;57.50;101593.11;1630367;86;21440;-71
2022/01/25 08:05:14;;;;;;;13.30;7.55;;;;;;;-3.65;57.19;101584.52;1630646;87;20948;-70
2022/01/25 08:07:42;;;;;;;14.35;8.63;;;;;;;-3.55;56.36;101580.59;1630362;88;21403;-71
2022/01/25 08:10:09;;;;;;;13.08;7.97;;;;;;;-3.56;56.20;101578.43;1630642;87;20972;-71
2022/01/25 08:12:36;;;;;;;13.85;7.60;;;;;;;-3.59;56.19;101566.14;1630161;86;21003;-72
2022/01/25 08:15:05;;;;;;;14.85;8.75;;;;;;;-3.61;56.05;101573.31;1630740;87;21958;-72
2022/01/25 08:17:32;;;;;;;14.40;7.97;;;;;;;-3.61;55.90;101564.17;1630800;86;20983;-71
2022/01/25 08:19:59;;;;;;;12.40;8.10;;;;;;;-3.66;55.61;101560.65;1627868;86;21062;-71
2022/01/25 08:22:25;;;;;;;12.98;7.90;;;;;;;-3.63;55.71;101558.25;1631011;86;21004;-71
2022/01/25 08:24:56;;;;;;;14.87;7.87;;;;;;;-3.57;55.70;101555.09;1630913;87;21019;-70
2022/01/25 08:27:24;;;;;;;10.78;6.80;;;;;;;-3.49;55.57;101553.07;1619839;87;21805;-71
2022/01/25 08:29:52;;;;;;;12.15;7.20;;;;;;;-3.49;55.50;101551.77;1637537;87;21147;-72
2022/01/25 08:32:19;;;;;;;13.48;7.90;;;;;;;-3.49;55.48;101555.68;1641800;87;21039;-72
2022/01/25 08:34:47;;;;;;;12.43;7.40;;;;;;;-3.45;55.64;101551.36;1641157;87;21106;-72
2022/01/25 08:37:14;;;;;;;13.15;7.25;;;;;;;-3.46;54.91;101554.09;1641496;86;21546;-71
2022/01/25 08:39:43;;;;;;;11.48;7.80;;;;;;;-3.66;55.17;101558.04;1641413;86;21023;-72
2022/01/25 08:42:10;;;;;;;12.98;8.15;;;;;;;-3.78;55.30;101550.03;1641655;86;21166;-72
2022/01/25 08:44:36;;;;;;;12.03;7.17;;;;;;;-3.73;55.51;101549.13;1641466;87;21136;-72
2022/01/25 08:47:04;;;;;;;12.33;8.13;;;;;;;-3.58;55.62;101547.73;1641351;87;21015;-73
2022/01/25 08:49:31;;;;;;;12.35;8.68;;;;;;;-3.42;55.45;101539.33;1588346;87;21638;-71
2022/01/25 08:51:58;;;;;;;12.53;7.83;;;;;;;-3.31;55.27;101531.31;1610123;88;21566;-72
2022/01/25 08:54:25;;;;;;;13.78;7.40;;;;;;;-3.18;55.11;101525.77;1630613;87;21107;-72
2022/01/25 08:56:53;;;;;;;12.70;8.15;;;;;;;-3.09;54.68;101523.61;1630695;87;21023;-73
2022/01/25 08:59:20;;;;;;;14.03;8.03;;;;;;;-3.12;54.63;101521.77;1628129;87;21149;-72
2022/01/25 09:01:47;;;;;;;13.75;7.80;;;;;;;-3.45;54.39;101517.41;1630879;86;21007;-72
2022/01/25 09:04:14;;;;;;;12.88;7.10;;;;;;;-3.45;54.39;101517.41;1631122;87;21213;-74
2022/01/25 09:06:40;;;;;;;12.88;7.47;;;;;;;-3.59;54.60;101519.95;1629914;86;20993;-73
2022/01/25 09:09:09;;;;;;;12.65;7.20;;;;;;;-3.63;55.03;101511.25;1630964;86;21020;-73
2022/01/25 09:11:40;;;;;;;13.88;7.83;;;;;;;-3.65;54.78;101510.10;1619723;87;21713;-72
2022/01/25 09:14:08;;;;;;;12.40;7.42;;;;;;;-3.67;54.92;101513.80;1620140;87;21035;-72
2022/01/25 09:16:35;;;;;;;11.12;6.90;;;;;;;-3.60;54.90;101511.79;1620207;88;21077;-72
2022/01/25 09:19:02;;;;;;;11.55;6.58;;;;;;;-3.50;54.93;101497.89;1609741;87;21047;-71
2022/01/25 09:21:29;;;;;;;10.03;6.25;;;;;;;-3.45;54.68;101500.92;1610185;89;21095;-72
2022/01/25 09:23:56;;;;;;;11.28;6.92;;;;;;;-3.42;54.73;101496.69;1610261;87;21115;-72
2022/01/25 09:26:23;;;;;;;11.30;6.60;;;;;;;-3.31;54.53;101500.45;1630825;86;21022;-72
2022/01/25 09:28:53;;;;;;;11.88;6.83;;;;;;;-3.15;54.52;101488.91;1660665;86;21143;-73
2022/01/25 09:31:19;;;;;;;10.82;6.55;;;;;;;-3.03;53.94;101486.09;1645978;85;21028;-71
2022/01/25 09:33:46;;;;;;;11.25;6.87;;;;;;;-3.05;53.70;101482.81;1660523;86;21032;-71
2022/01/25 09:36:12;;;;;;;12.88;6.83;;;;;;;-3.05;53.65;101481.51;1660329;85;20984;-72
2022/01/25 09:38:39;;;;;;;12.23;6.80;;;;;;;-3.06;53.66;101474.13;1645889;87;21186;-71
2022/01/25 09:41:06;;;;;;;11.03;6.90;;;;;;;-2.95;53.73;101477.05;1660561;86;21511;-72
2022/01/25 09:43:33;;;;;;;11.22;7.00;;;;;;;-2.87;53.62;101471.91;1660344;85;21130;-72
2022/01/25 09:46:00;;;;;;;12.30;6.58;;;;;;;-2.65;52.49;101463.65;1645767;85;21082;-72
2022/01/25 09:48:27;;;;;;;11.78;7.03;;;;;;;-2.65;52.49;101463.65;1660587;86;21082;-72
2022/01/25 09:50:56;;;;;;;10.30;6.10;;;;;;;-2.65;52.75;101471.50;1660622;86;21527;-72
2022/01/25 09:53:24;;;;;;;11.15;6.37;;;;;;;-2.61;52.90;101451.09;1636305;86;21134;-72
2022/01/25 09:55:51;;;;;;;11.78;6.83;;;;;;;-2.61;52.90;101451.09;1660545;86;21023;-72
2022/01/25 09:58:17;;;;;;;11.48;7.60;;;;;;;-2.47;52.07;101441.90;1660692;86;21066;-72
2022/01/25 10:00:46;;;;;;;12.63;6.55;;;;;;;-2.47;52.07;101441.90;1660299;86;21055;-72
2022/01/25 10:03:24;;;;;;;11.53;6.87;;;;;;;-2.49;52.00;101432.09;1660538;86;21036;-72
2022/01/25 10:05:49;;;;;;;12.07;7.42;;;;;;;-2.61;51.87;101437.53;1660337;86;21494;-71
2022/01/25 10:08:20;;;;;;;13.03;7.72;;;;;;;-2.87;51.72;101430.08;1660447;86;21051;-71
2022/01/25 10:10:55;;;;;;;11.57;7.35;;;;;;;-2.89;52.17;101428.11;1660475;86;21027;-71
2022/01/25 10:13:28;;;;;;;12.37;7.25;;;;;;;-2.68;52.16;101419.48;1660507;86;21015;-71
2022/01/25 10:16:14;;;;;;;11.80;7.37;;;;;;;-2.68;52.16;101419.48;1660492;86;21192;-71
2022/01/25 10:18:58;;;;;;;13.62;7.95;;;;;;;-2.61;51.93;101409.25;1660384;85;21550;-70
2022/01/25 10:21:31;;;;;;;13.00;7.62;;;;;;;-2.51;51.91;101406.56;1660435;86;21059;-71
2022/01/25 10:24:16;;;;;;;12.13;7.20;;;;;;;-2.26;51.95;101407.59;1660440;86;21055;-72
2022/01/25 10:26:53;;;;;;;14.13;8.75;;;;;;;-1.98;51.27;101399.11;1660590;86;20991;-72
2022/01/25 10:29:29;;;;;;;14.13;8.48;;;;;;;-1.98;51.27;101399.11;1660561;86;21039;-72
2022/01/25 10:32:06;;;;;;;12.07;7.62;;;;;;;-1.96;50.56;101405.02;1660540;86;21438;-71
2022/01/25 10:34:40;;;;;;;13.53;7.60;;;;;;;-2.09;50.29;101402.80;1660342;86;21606;-72
2022/01/25 10:37:12;;;;;;;13.00;7.72;;;;;;;-2.18;50.53;101397.98;1660698;86;21511;-70
2022/01/25 10:39:43;;;;;;;13.20;8.35;;;;;;;-2.16;50.63;101405.21;1655653;86;21114;-71
2022/01/25 10:42:26;;;;;;;18.12;8.85;;;;;;;-2.22;50.28;101411.05;1635809;86;21475;-71
2022/01/25 10:44:56;;;;;;;13.75;8.60;;;;;;;-2.36;50.46;101394.59;1630667;87;21213;-70
2022/01/25 10:47:52;;;;;;;12.45;7.85;;;;;;;-2.33;50.85;101387.75;1630306;86;20966;-71
2022/01/25 10:50:25;;;;;;;13.15;8.33;;;;;;;-2.20;50.84;101379.52;1630017;87;21101;-71
2022/01/25 10:53:11;;;;;;;12.47;8.13;;;;;;;-2.45;50.72;101377.19;1631020;87;21490;-72
2022/01/25 10:55:44;;;;;;;13.35;8.35;;;;;;;-2.63;51.19;101373.30;1629591;86;21079;-72
2022/01/25 10:58:12;;;;;;;12.50;8.03;;;;;;;-2.77;51.27;101369.39;1631122;87;21985;-71
2022/01/25 11:00:49;;;;;;;11.05;6.58;;;;;;;-2.82;51.42;101369.52;1630448;87;21089;-71
2022/01/25 11:03:32;;;;;;;14.95;8.15;;;;;;;-2.73;51.50;101364.67;1630950;88;21034;-70
2022/01/25 11:06:15;;;;;;;14.58;8.98;;;;;;;-2.70;51.50;101363.07;1619795;88;21596;-71
2022/01/25 11:08:44;;;;;;;14.58;8.63;;;;;;;-2.81;51.50;101362.82;1629371;88;21510;-71
2022/01/25 11:11:23;;;;;;;15.28;8.80;;;;;;;-2.87;51.76;101350.34;1629480;87;21198;-71
2022/01/25 11:13:53;;;;;;;12.93;8.55;;;;;;;-2.83;51.72;101358.22;1603424;87;20975;-71
2022/01/25 11:16:20;;;;;;;13.43;9.05;;;;;;;-2.72;51.85;101350.16;1630081;88;21129;-71
2022/01/25 11:18:47;;;;;;;12.85;7.53;;;;;;;-2.61;51.75;101352.53;1630924;88;21098;-71
2022/01/25 11:21:14;;;;;;;11.08;7.47;;;;;;;-2.66;51.47;101349.56;1630602;88;21014;-72
2022/01/25 11:23:42;;;;;;;12.73;8.20;;;;;;;-2.82;51.57;101342.89;1630530;88;21112;-71
2022/01/25 11:26:13;;;;;;;14.23;8.45;;;;;;;-3.11;52.06;101336.08;1658182;86;21130;-72
2022/01/25 11:28:40;;;;;;;12.73;8.13;;;;;;;-3.11;52.06;101336.08;1660691;86;21557;-70
2022/01/25 11:31:19;;;;;;;13.13;7.55;;;;;;;-3.18;52.59;101327.19;1660277;86;21087;-70
2022/01/25 11:33:47;;;;;;;12.98;7.62;;;;;;;-3.18;52.59;101327.19;1660594;86;21090;-70
2022/01/25 11:36:14;;;;;;;13.62;7.58;;;;;;;-3.41;52.78;101320.25;1660227;86;21538;-70
2022/01/25 11:38:51;;;;;;;15.78;7.85;;;;;;;-3.41;52.78;101320.25;1652804;86;21332;-71
2022/01/25 11:41:23;;;;;;;11.90;7.45;;;;;;;-3.41;52.92;101324.66;1628852;88;21023;-70
2022/01/25 11:44:11;;;;;;;13.20;7.90;;;;;;;-3.41;53.13;101316.83;1629700;88;21562;-71
2022/01/25 11:46:43;;;;;;;16.05;8.65;;;;;;;-3.56;53.41;101297.72;1629414;88;20987;-71
2022/01/25 11:49:17;;;;;;;12.98;8.08;;;;;;;-3.56;53.41;101297.72;1629463;88;21150;-71
2022/01/25 11:51:47;;;;;;;15.15;7.58;;;;;;;-3.46;53.51;101298.15;1629448;88;20975;-72
2022/01/25 11:54:13;;;;;;;15.13;8.93;;;;;;;-3.39;53.21;101292.67;1634429;86;21585;-73
2022/01/25 11:56:41;;;;;;;14.40;7.78;;;;;;;-3.37;52.87;101309.03;1629386;88;21036;-70
2022/01/25 11:59:10;;;;;;;12.93;7.60;;;;;;;-3.49;52.95;101299.26;1629737;88;21525;-71
2022/01/25 12:01:36;;;;;;;15.50;8.68;;;;;;;-3.51;52.84;101291.25;1603972;88;21198;-71
2022/01/25 12:04:23;;;;;;;14.10;8.13;;;;;;;-3.50;53.09;101283.27;1629538;88;20992;-71
2022/01/25 12:07:00;;;;;;;13.38;8.20;;;;;;;-3.37;52.96;101282.42;1685360;85;20983;-73
2022/01/25 12:09:42;;;;;;;12.33;7.55;;;;;;;-3.25;52.92;101275.69;1687153;83;20975;-74
2022/01/25 12:12:07;;;;;;;12.75;7.33;;;;;;;-3.11;52.82;101279.89;1679640;83;21042;-72
2022/01/25 12:14:37;;;;;;;12.45;8.00;;;;;;;-3.03;52.22;101270.48;1648376;85;21204;-70
2022/01/25 12:17:12;;;;;;;12.78;7.72;;;;;;;-3.04;52.27;101267.05;1673796;84;28579;-73
2022/01/25 12:19:50;;;;;;;12.37;7.75;;;;;;;-2.96;52.22;101254.06;1673578;85;21533;-72
2022/01/25 12:22:36;;;;;;;13.53;7.67;;;;;;;-2.88;52.15;101248.06;1674307;84;21109;-72
2022/01/25 12:25:13;;;;;;;12.23;7.30;;;;;;;-2.78;51.97;101240.95;1657953;86;21186;-73
2022/01/25 12:28:06;;;;;;;11.95;7.45;;;;;;;-2.68;51.84;101244.77;1660627;84;21174;-73
2022/01/25 12:30:32;;;;;;;11.68;7.05;;;;;;;-2.63;51.42;101243.84;1697758;83;21095;-74
2022/01/25 12:33:09;;;;;;;11.35;7.12;;;;;;;-2.79;51.18;101238.02;1722202;82;20981;-72
2022/01/25 12:35:49;;;;;;;14.58;8.50;;;;;;;-2.94;51.63;101232.00;1718328;82;21075;-72
2022/01/25 12:38:24;;;;;;;14.40;8.68;;;;;;;-2.93;52.17;101232.00;1701919;84;21473;-73
2022/01/25 12:41:10;;;;;;;14.50;9.15;;;;;;;-2.84;51.96;101223.25;1729290;81;21131;-72
2022/01/25 12:43:44;;;;;;;14.18;8.08;;;;;;;-2.83;51.89;101226.19;1701794;84;21066;-73
2022/01/25 12:46:20;;;;;;;12.58;7.55;;;;;;;-2.74;51.92;101227.89;1729494;81;20954;-74
2022/01/25 12:48:56;;;;;;;15.85;9.40;;;;;;;-2.77;51.71;101229.51;1702033;83;21062;-73
2022/01/25 12:51:32;;;;;;;14.00;8.73;;;;;;;-2.94;51.83;101222.04;1729535;81;21049;-72
2022/01/25 12:54:02;;;;;;;16.37;9.13;;;;;;;-3.00;52.10;101215.30;1701980;83;21182;-73
2022/01/25 12:56:34;;;;;;;16.32;9.53;;;;;;;-2.92;52.28;101195.27;1729299;83;21473;-72
2022/01/25 12:59:11;;;;;;;17.48;9.55;;;;;;;-2.81;52.29;101211.67;1702186;84;21605;-73
2022/01/25 13:01:40;;;;;;;16.27;9.15;;;;;;;-2.92;51.67;101208.84;1728813;81;20962;-73